createdAt,value
2023-03-02T00:47:11.192Z,18.67
2023-03-02T00:49:39.552Z,22.60
2023-03-02T00:52:08.044Z,19.75
2023-03-02T00:54:36.417Z,23.42
2023-03-02T00:57:05.100Z,18.88
2023-03-02T00:59:33.461Z,18.30
2023-03-02T01:46:41.310Z,15.95
2023-03-02T01:49:14.640Z,17.83
2023-03-02T01:52:02.907Z,15.27
2023-03-02T01:54:31.561Z,15.85
2023-03-02T01:57:05.551Z,12.93
2023-03-02T01:59:37.600Z,14.57
2023-03-02T02:47:52.915Z,11.90
2023-03-02T02:50:25.688Z,12.15
2023-03-02T02:53:03.658Z,14.27
2023-03-02T02:55:33.810Z,11.48
2023-03-02T02:58:09.961Z,12.10
2023-03-02T03:48:06.746Z,12.23
2023-03-02T03:50:35.705Z,9.35
2023-03-02T03:53:04.353Z,10.70
2023-03-02T03:55:32.874Z,9.77
2023-03-02T03:58:01.442Z,9.15
2023-03-02T04:47:30.574Z,7.75
2023-03-02T04:49:59.016Z,8.60
2023-03-02T04:52:27.370Z,7.88
2023-03-02T04:54:55.885Z,6.93
2023-03-02T04:57:24.185Z,7.38
2023-03-02T04:59:52.523Z,7.68
2023-03-02T05:46:08.834Z,7.35
2023-03-02T05:48:37.334Z,4.85
2023-03-02T05:51:06.624Z,8.30
2023-03-02T05:53:35.070Z,9.32
2023-03-02T05:56:03.435Z,8.45
2023-03-02T05:58:32.484Z,8.18
2023-03-02T06:01:00.846Z,7.20
2023-03-02T06:03:30.553Z,5.55
2023-03-02T06:05:59.905Z,9.20
2023-03-02T06:08:28.575Z,6.03
2023-03-02T06:10:57.558Z,6.95
2023-03-02T06:13:26.035Z,6.68
2023-03-02T06:15:54.485Z,5.22
2023-03-02T06:18:22.834Z,5.22
2023-03-02T06:20:52.608Z,7.43
2023-03-02T06:23:20.977Z,6.93
2023-03-02T06:25:49.354Z,6.55
2023-03-02T06:28:19.829Z,8.02
2023-03-02T06:30:49.576Z,6.78
2023-03-02T06:33:19.247Z,7.10
2023-03-02T06:35:47.955Z,8.40
2023-03-02T06:38:18.170Z,8.73
2023-03-02T06:40:47.056Z,6.93
2023-03-02T06:43:15.777Z,6.68
2023-03-02T06:45:44.274Z,6.82
2023-03-02T06:48:12.661Z,6.57
2023-03-02T06:50:41.049Z,8.00
2023-03-02T06:53:09.443Z,8.13
2023-03-02T06:55:39.213Z,7.60
2023-03-02T06:58:07.569Z,9.27
2023-03-02T07:00:35.896Z,8.82
2023-03-02T07:03:04.284Z,9.65
2023-03-02T07:05:33.182Z,8.68
2023-03-02T07:08:02.466Z,7.43
2023-03-02T07:10:31.053Z,8.32
2023-03-02T07:13:00.827Z,8.75
2023-03-02T07:15:29.453Z,6.53
2023-03-02T07:17:57.818Z,8.98
2023-03-02T07:20:26.326Z,6.35
2023-03-02T07:22:54.604Z,7.10
2023-03-02T07:25:23.235Z,7.13
2023-03-02T07:27:51.621Z,7.22
2023-03-02T07:30:21.930Z,6.82
2023-03-02T07:32:50.688Z,5.95
2023-03-02T07:35:20.091Z,7.45
2023-03-02T07:37:48.514Z,8.88
2023-03-02T07:40:17.122Z,7.32
2023-03-02T07:42:45.417Z,8.57
2023-03-02T07:45:16.761Z,8.15
2023-03-02T07:47:46.677Z,7.10
2023-03-02T07:50:15.012Z,5.90
2023-03-02T07:52:43.502Z,6.07
2023-03-02T07:55:12.285Z,7.43
2023-03-02T07:57:40.680Z,7.10
2023-03-02T08:00:11.249Z,4.55
2023-03-02T08:02:42.729Z,7.57
2023-03-02T08:05:13.293Z,7.15
2023-03-02T08:07:42.309Z,7.32
2023-03-02T08:10:13.193Z,8.65
2023-03-02T08:12:42.846Z,5.30
2023-03-02T08:15:12.858Z,5.75
2023-03-02T08:17:41.334Z,6.03
2023-03-02T08:20:12.506Z,5.53
2023-03-02T08:22:40.836Z,5.93
2023-03-02T08:25:09.682Z,6.38
2023-03-02T08:27:40.369Z,7.78
2023-03-02T08:30:12.560Z,5.68
2023-03-02T08:32:41.475Z,4.68
2023-03-02T08:35:10.539Z,5.40
2023-03-02T08:37:40.214Z,4.78
2023-03-02T08:40:10.663Z,4.53
2023-03-02T08:42:39.371Z,6.28
2023-03-02T08:45:09.652Z,5.82
2023-03-02T08:47:38.611Z,4.50
2023-03-02T08:50:07.892Z,5.57
2023-03-02T08:52:36.331Z,6.32
2023-03-02T08:55:08.205Z,4.30
2023-03-02T08:57:36.774Z,4.65
2023-03-02T09:00:09.177Z,5.20
2023-03-02T09:02:37.458Z,4.45
2023-03-02T09:05:06.534Z,5.55
2023-03-02T09:07:34.918Z,4.28
2023-03-02T09:10:03.347Z,5.45
2023-03-02T09:12:33.160Z,4.90
2023-03-02T09:15:01.538Z,4.40
2023-03-02T09:17:29.950Z,4.82
2023-03-02T09:20:00.428Z,7.60
2023-03-02T09:22:28.801Z,5.38
2023-03-02T09:24:57.265Z,5.50
2023-03-02T09:27:25.717Z,5.10
2023-03-02T09:29:55.553Z,6.43
2023-03-02T09:32:24.016Z,5.32
2023-03-02T09:34:52.630Z,4.55
2023-03-02T09:37:20.916Z,4.15
2023-03-02T09:39:49.606Z,4.80
2023-03-02T09:42:44.581Z,4.88
2023-03-02T09:45:34.086Z,6.85
2023-03-02T09:48:15.793Z,5.25
2023-03-02T09:50:57.241Z,6.47
2023-03-02T09:53:37.990Z,4.90
2023-03-02T09:56:16.353Z,5.63
2023-03-02T09:58:52.786Z,5.85
2023-03-02T10:01:36.721Z,6.80
2023-03-02T10:04:18.585Z,7.15
2023-03-02T10:06:47.680Z,5.82
2023-03-02T10:09:16.063Z,5.85
2023-03-02T10:12:08.062Z,6.32
2023-03-02T10:14:42.569Z,6.28
2023-03-02T10:17:52.899Z,8.50
2023-03-02T10:20:34.089Z,6.03
2023-03-02T10:23:18.473Z,4.50
2023-03-02T10:25:53.407Z,7.00
2023-03-02T10:28:25.172Z,8.32
2023-03-02T10:30:59.154Z,5.10
2023-03-02T10:33:29.506Z,6.22
2023-03-02T10:36:01.062Z,5.43
2023-03-02T10:38:30.361Z,6.10
2023-03-02T10:41:01.941Z,6.28
2023-03-02T10:43:36.384Z,6.38
2023-03-02T10:46:08.502Z,5.32
2023-03-02T10:48:51.077Z,7.82
2023-03-02T10:51:26.670Z,5.75
2023-03-02T10:54:10.979Z,6.15
2023-03-02T10:56:39.911Z,5.40
2023-03-02T10:59:39.411Z,4.40
2023-03-02T11:02:17.956Z,4.05
2023-03-02T11:04:47.750Z,5.97
2023-03-02T11:07:19.702Z,5.82
2023-03-02T11:09:59.963Z,4.30
2023-03-02T11:12:29.167Z,5.25
2023-03-02T11:15:19.080Z,4.10
2023-03-02T11:17:51.792Z,5.45
2023-03-02T11:20:26.974Z,4.68
2023-03-02T11:23:09.335Z,6.43
2023-03-02T11:25:44.711Z,4.15
2023-03-02T11:28:32.865Z,4.72
2023-03-02T11:31:03.908Z,4.35
2023-03-02T11:33:38.472Z,4.75
2023-03-02T11:36:15.895Z,5.28
2023-03-02T11:38:50.203Z,4.07
2023-03-02T11:41:29.900Z,4.97
2023-03-02T11:44:02.405Z,5.05
2023-03-02T11:46:33.753Z,5.85
2023-03-02T11:49:07.345Z,5.40
2023-03-02T11:51:44.670Z,6.13
2023-03-02T11:54:37.740Z,5.25
2023-03-02T11:57:06.719Z,6.40
2023-03-02T11:59:36.635Z,4.30
2023-03-02T12:02:05.718Z,4.45
2023-03-02T12:04:36.414Z,5.15
2023-03-02T12:07:22.775Z,4.90
2023-03-02T12:10:05.361Z,5.50
2023-03-02T12:12:49.337Z,6.32
2023-03-02T12:15:46.082Z,6.07
2023-03-02T12:18:43.407Z,5.38
2023-03-02T12:21:15.729Z,6.65
2023-03-02T12:24:03.743Z,4.25
2023-03-02T12:26:36.992Z,5.40
2023-03-02T12:29:23.710Z,5.15
2023-03-02T12:31:54.924Z,4.22
2023-03-02T12:34:40.138Z,5.25
2023-03-02T12:37:18.514Z,3.97
2023-03-02T12:40:29.573Z,4.28
2023-03-02T12:43:26.566Z,5.82
2023-03-02T12:46:30.317Z,5.35
2023-03-02T12:49:36.361Z,4.32
2023-03-02T12:52:24.186Z,5.75
2023-03-02T12:55:08.739Z,4.60
2023-03-02T12:57:47.670Z,4.45
2023-03-02T13:00:19.733Z,4.00
2023-03-02T13:02:50.381Z,4.13
2023-03-02T13:05:22.594Z,3.63
2023-03-02T13:07:59.572Z,4.05
2023-03-02T13:10:37.105Z,5.22
2023-03-02T13:13:18.157Z,5.10
2023-03-02T13:15:52.080Z,3.78
2023-03-02T13:18:22.585Z,3.70
2023-03-02T13:20:52.601Z,3.80
2023-03-02T13:23:21.568Z,4.07
2023-03-02T13:25:55.034Z,5.10
2023-03-02T13:28:30.096Z,5.72
2023-03-02T13:31:01.516Z,4.03
2023-03-02T13:33:32.000Z,3.88
2023-03-02T13:36:01.103Z,4.05
2023-03-02T13:38:35.039Z,4.10
2023-03-02T13:41:05.662Z,5.03
2023-03-02T13:43:39.970Z,3.33
2023-03-02T13:46:29.531Z,2.78
2023-03-02T13:49:09.783Z,3.53
2023-03-02T13:51:43.274Z,4.90
2023-03-02T13:54:22.989Z,3.83
2023-03-02T13:56:54.619Z,3.53
2023-03-02T13:59:24.151Z,4.50
2023-03-02T14:01:52.766Z,3.72
2023-03-02T14:04:24.266Z,3.85
2023-03-02T14:06:54.253Z,4.22
2023-03-02T14:09:23.335Z,5.10
2023-03-02T14:11:57.046Z,4.18
2023-03-02T14:14:28.619Z,4.90
2023-03-02T14:16:57.380Z,4.60
2023-03-02T14:19:25.909Z,3.80
2023-03-02T14:21:54.372Z,3.78
2023-03-02T14:24:22.801Z,6.07
2023-03-02T14:26:52.516Z,3.63
2023-03-02T14:29:26.619Z,5.10
2023-03-02T14:31:55.968Z,3.75
2023-03-02T14:34:24.921Z,5.15
2023-03-02T14:36:55.799Z,5.10
2023-03-02T14:39:35.207Z,4.05
2023-03-02T14:42:06.139Z,4.63
2023-03-02T14:44:34.649Z,4.03
2023-03-02T14:47:03.097Z,5.22
2023-03-02T14:49:31.901Z,3.22
2023-03-02T14:52:05.556Z,4.93
2023-03-02T14:54:40.749Z,4.30
2023-03-02T14:57:19.528Z,5.60
2023-03-02T14:59:48.177Z,5.53
2023-03-02T15:02:25.140Z,5.20
2023-03-02T15:04:56.931Z,3.42
2023-03-02T15:07:27.470Z,3.17
2023-03-02T15:09:56.526Z,4.13
2023-03-02T15:12:26.798Z,3.20
2023-03-02T15:14:55.351Z,3.97
2023-03-02T15:17:24.093Z,5.68
2023-03-02T15:19:52.834Z,3.20
2023-03-02T15:22:21.265Z,4.93
2023-03-02T15:24:49.871Z,4.78
2023-03-02T15:27:18.422Z,3.25
2023-03-02T15:29:49.486Z,5.88
2023-03-02T15:32:18.365Z,7.60
2023-03-02T15:34:48.474Z,7.55
2023-03-02T15:37:17.138Z,6.55
2023-03-02T15:39:45.551Z,6.15
2023-03-02T15:42:14.170Z,5.55
2023-03-02T15:44:42.841Z,6.88
2023-03-02T15:47:13.079Z,4.95
2023-03-02T15:49:41.560Z,5.60
2023-03-02T15:52:11.059Z,7.47
2023-03-02T15:54:39.549Z,11.77
2023-03-02T15:57:09.340Z,33.50
2023-03-02T15:59:38.043Z,34.08
2023-03-02T16:02:06.523Z,39.17
2023-03-02T16:04:36.468Z,31.05
2023-03-02T16:07:05.981Z,30.38
2023-03-02T16:09:34.485Z,30.52
2023-03-02T16:12:02.799Z,32.55
2023-03-02T16:14:31.305Z,30.45
2023-03-02T16:16:59.681Z,32.15
2023-03-02T16:19:28.217Z,24.55
2023-03-02T16:21:58.329Z,26.52
2023-03-02T16:24:27.106Z,25.92
2023-03-02T16:26:55.511Z,27.55
2023-03-02T16:29:24.592Z,27.55
2023-03-02T16:31:53.532Z,24.00
2023-03-02T16:34:22.310Z,25.25
2023-03-02T16:36:50.744Z,26.55
2023-03-02T16:39:20.415Z,24.92
2023-03-02T16:41:48.846Z,36.28
2023-03-02T16:44:17.390Z,61.38
2023-03-02T16:46:45.920Z,31.08
2023-03-02T16:49:15.677Z,28.85
2023-03-02T16:51:44.790Z,23.52
2023-03-02T16:54:17.717Z,31.40
2023-03-02T16:56:47.775Z,30.30
2023-03-02T16:59:16.437Z,27.77
2023-03-02T17:01:45.079Z,28.30
2023-03-02T17:04:13.619Z,28.88
2023-03-02T17:06:59.965Z,22.60
2023-03-02T17:09:28.958Z,23.02
2023-03-02T17:11:58.888Z,22.33
2023-03-02T17:14:27.617Z,17.98
2023-03-02T17:16:57.837Z,15.75
2023-03-02T17:19:26.938Z,14.00
2023-03-02T17:21:58.122Z,15.02
2023-03-02T17:24:26.525Z,15.60
2023-03-02T17:26:54.917Z,15.95
2023-03-02T17:29:25.287Z,460.77
2023-03-02T17:31:53.992Z,544.17
2023-03-02T17:34:22.629Z,453.63
2023-03-02T17:36:50.927Z,360.23
2023-03-02T17:39:19.242Z,270.40
2023-03-02T17:41:47.597Z,195.18
2023-03-02T17:44:16.003Z,199.93
2023-03-02T17:46:46.545Z,151.70
2023-03-02T17:49:15.146Z,175.73
2023-03-02T17:51:43.563Z,142.70
2023-03-02T17:54:11.998Z,127.03
2023-03-02T17:56:40.362Z,106.57
2023-03-02T17:59:08.782Z,97.60
2023-03-02T18:01:37.230Z,83.75
2023-03-02T18:04:07.243Z,91.95
2023-03-02T18:06:35.746Z,69.68
2023-03-02T18:09:04.471Z,66.47
2023-03-02T18:11:33.038Z,51.17
2023-03-02T18:14:01.522Z,51.72
2023-03-02T18:16:30.027Z,47.05
2023-03-02T18:18:58.688Z,43.53
2023-03-02T18:21:28.772Z,41.95
2023-03-02T18:23:57.218Z,30.75
2023-03-02T18:26:26.065Z,27.23
2023-03-02T18:28:54.638Z,21.73
2023-03-02T18:31:23.465Z,19.60
2023-03-02T18:33:52.175Z,17.88
2023-03-02T18:36:20.755Z,18.48
2023-03-02T18:38:53.374Z,14.05
2023-03-02T18:41:23.382Z,14.93
2023-03-02T18:43:52.043Z,12.48
2023-03-02T18:46:23.899Z,14.95
2023-03-02T18:48:52.931Z,12.50
2023-03-02T18:51:22.499Z,12.57
2023-03-02T18:53:53.343Z,13.90
2023-03-02T18:56:22.561Z,15.20
2023-03-02T18:58:51.748Z,13.65
2023-03-02T19:01:22.284Z,13.85
2023-03-02T19:03:50.966Z,17.00
2023-03-02T19:06:20.482Z,11.07
2023-03-02T19:08:49.554Z,10.68
2023-03-02T19:11:19.381Z,11.00
2023-03-02T19:13:48.094Z,13.20
2023-03-02T19:16:18.382Z,10.88
2023-03-02T19:18:47.071Z,12.07
2023-03-02T19:21:15.812Z,9.93
2023-03-02T19:23:46.480Z,9.68
2023-03-02T19:26:15.122Z,10.00
2023-03-02T19:28:44.917Z,12.98
2023-03-02T19:31:14.140Z,6.10
2023-03-02T19:33:44.908Z,8.75
2023-03-02T19:36:14.624Z,9.63
2023-03-02T19:38:44.406Z,6.72
2023-03-02T19:41:14.960Z,9.25
2023-03-02T19:43:45.934Z,6.43
2023-03-02T19:46:15.830Z,7.03
2023-03-02T19:48:44.487Z,8.45
2023-03-02T19:51:13.510Z,5.63
2023-03-02T19:53:43.098Z,6.57
2023-03-02T19:56:14.817Z,7.28
2023-03-02T19:58:49.668Z,10.50
2023-03-02T20:01:21.835Z,10.60
2023-03-02T20:03:51.775Z,8.25
2023-03-02T20:06:20.763Z,8.35
2023-03-02T20:08:49.443Z,7.55
2023-03-02T20:11:19.046Z,7.70
2023-03-02T20:13:50.613Z,9.15
2023-03-02T20:16:22.795Z,13.43
2023-03-02T20:18:51.220Z,9.45
2023-03-02T20:21:21.225Z,12.70
2023-03-02T20:23:50.476Z,7.85
2023-03-02T20:26:18.972Z,11.63
2023-03-02T20:28:49.434Z,7.20
2023-03-02T20:31:18.334Z,7.70
2023-03-02T20:33:51.374Z,6.90
2023-03-02T20:36:25.927Z,4.57
2023-03-02T20:38:58.457Z,6.40
2023-03-02T20:41:27.480Z,7.50
2023-03-02T20:43:57.510Z,7.13
2023-03-02T20:46:30.914Z,10.38
2023-03-02T20:48:59.477Z,10.13
2023-03-02T20:51:29.264Z,6.20
2023-03-02T20:53:58.329Z,7.60
2023-03-02T20:56:26.906Z,7.88
2023-03-02T20:58:56.921Z,6.05
2023-03-02T21:01:25.921Z,7.15
2023-03-02T21:03:54.534Z,7.00
2023-03-02T21:06:23.346Z,5.10
2023-03-02T21:08:52.760Z,6.78
2023-03-02T21:11:23.430Z,7.95
2023-03-02T21:13:51.944Z,6.65
2023-03-02T21:16:24.939Z,7.68
2023-03-02T21:18:54.740Z,6.55
2023-03-02T21:21:40.419Z,7.72
2023-03-02T21:24:10.514Z,8.30
2023-03-02T21:26:41.534Z,8.10
2023-03-02T21:29:11.816Z,4.00
2023-03-02T21:31:43.898Z,8.30
2023-03-02T21:34:13.342Z,5.05
2023-03-02T21:36:42.719Z,5.93
2023-03-02T21:39:11.815Z,3.90
2023-03-02T21:41:40.617Z,5.30
2023-03-02T21:44:09.106Z,5.57
2023-03-02T21:46:39.238Z,7.97
2023-03-02T21:49:09.254Z,4.30
2023-03-02T21:51:37.702Z,6.30
2023-03-02T21:54:06.867Z,4.80
2023-03-02T21:56:35.563Z,5.90
2023-03-02T21:59:05.034Z,6.50
2023-03-02T22:01:33.964Z,4.00
2023-03-02T22:04:02.501Z,3.90
2023-03-02T22:06:35.038Z,6.13
2023-03-02T22:09:04.772Z,5.53
2023-03-02T22:11:36.428Z,4.43
2023-03-02T22:14:13.354Z,4.65
2023-03-02T22:16:45.131Z,4.75
2023-03-02T22:19:26.920Z,7.03
2023-03-02T22:22:01.159Z,7.07
2023-03-02T22:24:31.550Z,4.97
2023-03-02T22:27:03.263Z,6.05
2023-03-02T22:29:38.947Z,4.50
2023-03-02T22:32:18.080Z,6.00
2023-03-02T22:34:48.506Z,5.13
2023-03-02T22:37:20.335Z,6.72
2023-03-02T22:39:50.110Z,5.00
2023-03-02T22:42:21.563Z,4.38
2023-03-02T22:45:00.362Z,4.28
2023-03-02T22:47:29.016Z,5.70
2023-03-02T22:50:01.553Z,3.78
2023-03-02T22:52:39.439Z,4.93
2023-03-02T22:55:32.107Z,5.50
2023-03-02T22:58:00.968Z,3.80
2023-03-02T23:00:38.728Z,4.10
2023-03-02T23:03:17.708Z,5.20
2023-03-02T23:05:49.115Z,5.88
2023-03-02T23:08:24.021Z,4.28
2023-03-02T23:10:54.912Z,4.88
2023-03-02T23:13:27.395Z,3.97
2023-03-02T23:15:56.520Z,3.35
2023-03-02T23:18:27.774Z,4.07
2023-03-02T23:20:56.893Z,5.80
2023-03-02T23:23:28.523Z,4.53
2023-03-02T23:25:57.025Z,4.88
2023-03-02T23:28:25.643Z,5.65
2023-03-02T23:30:54.048Z,4.90
2023-03-02T23:33:22.430Z,6.45
2023-03-02T23:35:50.784Z,4.10
2023-03-02T23:38:19.917Z,5.13
2023-03-02T23:40:49.872Z,4.35
2023-03-02T23:43:18.220Z,3.88
2023-03-02T23:45:47.257Z,3.03
2023-03-02T23:48:16.576Z,4.35
2023-03-02T23:50:45.481Z,3.90
2023-03-02T23:53:14.320Z,4.65
2023-03-02T23:55:47.886Z,3.33
2023-03-02T23:58:18.397Z,5.60
